IBE06DD LEMD-LIPZ
Flight info
| Callsign | IBE06DD |
|---|---|
| Flight time | 1h 51m |
| Altitude | 34000 |
| Route | PINAR N870 BCN M985 LUMAS DCT NEVIX DCT ODIXU DCT ADITA DCT RAPED DCT PIGOS DCT EKSID DCT NOSTA DCT NOPMU DCT BOA DCT SUKOM Q125 NIMUM Z43 OTGIG |
| Aircraft | A20N/M-SDE2E3FGHIRWXY/LB1 |
Departure
| Time | 2026-05-06 16:53 |
|---|---|
| Airport | Adolfo Suárez Madrid–Barajas Airport (LEMD) |
Arrival
| Time | 2026-05-06 18:44 |
|---|---|
| Airport | Venice Marco Polo Airport (LIPZ) |
| Time | Latitude | Longitude | Altitude | Speed | Heading |
|---|---|---|---|---|---|
| 2026-05-06 16:23 | 40.49331 | -3.56351 | 1964 ft | 0 kts | 270° |
| 2026-05-06 16:48 | 40.49331 | -3.56353 | 1964 ft | 0 kts | 270° |
| 2026-05-06 16:48 | 40.49331 | -3.56361 | 1964 ft | 2 kts | 270° |
| 2026-05-06 16:49 | 40.49331 | -3.56395 | 1965 ft | 5 kts | 271° |
| 2026-05-06 16:49 | 40.49349 | -3.56439 | 1968 ft | 7 kts | 323° |
| 2026-05-06 16:49 | 40.49418 | -3.56450 | 1967 ft | 14 kts | 0° |
| 2026-05-06 16:49 | 40.49533 | -3.56451 | 1966 ft | 18 kts | 360° |
| 2026-05-06 16:50 | 40.49668 | -3.56453 | 1966 ft | 20 kts | 359° |
| 2026-05-06 16:50 | 40.49797 | -3.56453 | 1966 ft | 18 kts | 0° |
| 2026-05-06 16:50 | 40.49907 | -3.56453 | 1966 ft | 11 kts | 0° |
| 2026-05-06 16:50 | 40.49939 | -3.56385 | 1964 ft | 11 kts | 85° |
| 2026-05-06 16:51 | 40.49939 | -3.56258 | 1961 ft | 16 kts | 90° |
| 2026-05-06 16:51 | 40.49939 | -3.56096 | 1957 ft | 13 kts | 88° |
| 2026-05-06 16:51 | 40.49960 | -3.55989 | 1959 ft | 12 kts | 58° |
| 2026-05-06 16:51 | 40.50029 | -3.55926 | 1959 ft | 12 kts | 17° |
| 2026-05-06 16:52 | 40.50104 | -3.55919 | 1960 ft | 12 kts | 357° |
| 2026-05-06 16:52 | 40.50275 | -3.55921 | 1961 ft | 49 kts | 359° |
| 2026-05-06 16:52 | 40.50843 | -3.55928 | 1963 ft | 113 kts | 359° |
| 2026-05-06 16:52 | 40.51829 | -3.55933 | 1954 ft | 164 kts | 360° |
| 2026-05-06 16:53 | 40.53000 | -3.55935 | 2494 ft | 163 kts | 360° |
| 2026-05-06 16:53 | 40.54121 | -3.55928 | 3133 ft | 165 kts | 359° |
| 2026-05-06 16:53 | 40.55267 | -3.55910 | 3756 ft | 166 kts | 356° |
| 2026-05-06 16:53 | 40.56464 | -3.55603 | 4133 ft | 186 kts | 17° |
| 2026-05-06 16:54 | 40.57721 | -3.54891 | 4447 ft | 206 kts | 20° |
| 2026-05-06 16:54 | 40.59082 | -3.54020 | 4809 ft | 229 kts | 27° |
| 2026-05-06 16:54 | 40.60372 | -3.52739 | 5645 ft | 233 kts | 39° |
| 2026-05-06 16:54 | 40.61622 | -3.51273 | 6355 ft | 251 kts | 38° |
| 2026-05-06 16:55 | 40.63007 | -3.49712 | 6832 ft | 274 kts | 38° |
| 2026-05-06 16:55 | 40.64491 | -3.48063 | 7591 ft | 282 kts | 38° |
| 2026-05-06 16:55 | 40.66006 | -3.46376 | 8490 ft | 288 kts | 38° |
| 2026-05-06 16:55 | 40.67552 | -3.44656 | 9409 ft | 293 kts | 38° |
| 2026-05-06 16:56 | 40.69124 | -3.42902 | 10227 ft | 300 kts | 38° |
| 2026-05-06 16:56 | 40.70771 | -3.41066 | 10670 ft | 321 kts | 38° |
| 2026-05-06 16:56 | 40.72533 | -3.39098 | 10990 ft | 343 kts | 38° |
| 2026-05-06 16:56 | 40.74376 | -3.37034 | 11687 ft | 350 kts | 38° |
| 2026-05-06 16:57 | 40.76243 | -3.34937 | 12531 ft | 354 kts | 38° |
| 2026-05-06 16:57 | 40.78130 | -3.32817 | 13340 ft | 359 kts | 38° |
| 2026-05-06 16:57 | 40.80040 | -3.30670 | 14133 ft | 362 kts | 38° |
| 2026-05-06 16:57 | 40.81960 | -3.28511 | 14866 ft | 366 kts | 38° |
| 2026-05-06 16:58 | 40.83862 | -3.26243 | 15601 ft | 370 kts | 46° |
| 2026-05-06 16:58 | 40.85366 | -3.23450 | 16313 ft | 377 kts | 61° |
| 2026-05-06 16:58 | 40.86297 | -3.20194 | 16981 ft | 384 kts | 74° |
| 2026-05-06 16:58 | 40.86964 | -3.16762 | 17652 ft | 388 kts | 74° |
| 2026-05-06 16:59 | 40.87635 | -3.13318 | 18311 ft | 392 kts | 74° |
| 2026-05-06 16:59 | 40.88322 | -3.09803 | 18866 ft | 398 kts | 74° |
| 2026-05-06 16:59 | 40.89021 | -3.06238 | 19417 ft | 403 kts | 74° |
| 2026-05-06 16:59 | 40.89727 | -3.02642 | 19974 ft | 408 kts | 74° |
| 2026-05-06 17:00 | 40.90443 | -2.98991 | 20530 ft | 412 kts | 73° |
| 2026-05-06 17:00 | 40.91168 | -2.95293 | 21066 ft | 417 kts | 73° |
| 2026-05-06 17:00 | 40.91897 | -2.91562 | 21638 ft | 421 kts | 73° |
| 2026-05-06 17:00 | 40.92632 | -2.87793 | 22191 ft | 426 kts | 74° |
| 2026-05-06 17:01 | 40.93375 | -2.83980 | 22732 ft | 430 kts | 74° |
| 2026-05-06 17:01 | 40.94122 | -2.80134 | 23283 ft | 434 kts | 74° |
| 2026-05-06 17:01 | 40.94876 | -2.76249 | 23765 ft | 438 kts | 74° |
| 2026-05-06 17:01 | 40.95637 | -2.72319 | 24173 ft | 443 kts | 74° |
| 2026-05-06 17:02 | 40.96405 | -2.68346 | 24599 ft | 447 kts | 74° |
| 2026-05-06 17:02 | 40.97177 | -2.64345 | 25005 ft | 452 kts | 74° |
| 2026-05-06 17:02 | 40.97948 | -2.60340 | 25383 ft | 456 kts | 74° |
| 2026-05-06 17:02 | 40.98732 | -2.56261 | 25782 ft | 460 kts | 75° |
| 2026-05-06 17:03 | 40.99523 | -2.52126 | 26165 ft | 465 kts | 75° |
| 2026-05-06 17:03 | 41.00318 | -2.47961 | 26527 ft | 469 kts | 75° |
| 2026-05-06 17:03 | 41.01119 | -2.43756 | 26896 ft | 473 kts | 75° |
| 2026-05-06 17:03 | 41.01925 | -2.39509 | 27251 ft | 477 kts | 75° |
| 2026-05-06 17:04 | 41.02738 | -2.35227 | 27590 ft | 482 kts | 75° |
| 2026-05-06 17:04 | 41.03558 | -2.30905 | 27909 ft | 486 kts | 75° |
| 2026-05-06 17:04 | 41.04382 | -2.26555 | 28241 ft | 490 kts | 75° |
| 2026-05-06 17:04 | 41.05216 | -2.22142 | 28564 ft | 494 kts | 75° |
| 2026-05-06 17:05 | 41.06049 | -2.17724 | 28887 ft | 497 kts | 75° |
| 2026-05-06 17:05 | 41.06890 | -2.13254 | 29199 ft | 500 kts | 75° |
| 2026-05-06 17:05 | 41.07732 | -2.08773 | 29484 ft | 504 kts | 75° |
| 2026-05-06 17:05 | 41.08581 | -2.04233 | 29783 ft | 508 kts | 75° |
| 2026-05-06 17:06 | 41.09430 | -1.99675 | 30064 ft | 511 kts | 75° |
| 2026-05-06 17:06 | 41.10280 | -1.95103 | 30383 ft | 512 kts | 75° |
| 2026-05-06 17:06 | 41.11130 | -1.90515 | 30698 ft | 513 kts | 75° |
| 2026-05-06 17:06 | 41.11981 | -1.85916 | 30992 ft | 515 kts | 76° |
| 2026-05-06 17:07 | 41.12834 | -1.81291 | 31386 ft | 515 kts | 76° |
| 2026-05-06 17:07 | 41.13684 | -1.76674 | 31812 ft | 514 kts | 76° |
| 2026-05-06 17:07 | 41.14527 | -1.72087 | 32206 ft | 513 kts | 76° |
| 2026-05-06 17:07 | 41.15362 | -1.67529 | 32586 ft | 512 kts | 76° |
| 2026-05-06 17:08 | 41.16201 | -1.62934 | 33009 ft | 511 kts | 76° |
| 2026-05-06 17:08 | 41.17037 | -1.58353 | 33374 ft | 511 kts | 76° |
| 2026-05-06 17:08 | 41.17872 | -1.53762 | 33725 ft | 510 kts | 76° |
| 2026-05-06 17:08 | 41.18702 | -1.49186 | 33916 ft | 509 kts | 76° |
| 2026-05-06 17:09 | 41.19530 | -1.44613 | 33939 ft | 508 kts | 76° |
| 2026-05-06 17:09 | 41.21174 | -1.35501 | 33938 ft | 508 kts | 76° |
| 2026-05-06 17:10 | 41.22817 | -1.26353 | 33937 ft | 508 kts | 77° |
| 2026-05-06 17:10 | 41.24448 | -1.17229 | 33925 ft | 508 kts | 77° |
| 2026-05-06 17:11 | 41.26075 | -1.08085 | 33929 ft | 508 kts | 77° |
| 2026-05-06 17:11 | 41.27692 | -0.98949 | 33927 ft | 508 kts | 77° |
| 2026-05-06 17:12 | 41.29304 | -0.89794 | 33931 ft | 509 kts | 77° |
| 2026-05-06 17:12 | 41.30639 | -0.82177 | 33928 ft | 509 kts | 77° |
| 2026-05-06 17:13 | 41.32497 | -0.71527 | 33912 ft | 507 kts | 78° |
| 2026-05-06 17:13 | 41.34081 | -0.62390 | 33914 ft | 507 kts | 78° |
| 2026-05-06 17:14 | 41.35186 | -0.54668 | 33911 ft | 506 kts | 86° |
| 2026-05-06 17:14 | 41.35325 | -0.45357 | 33907 ft | 503 kts | 93° |
| 2026-05-06 17:15 | 41.35259 | -0.36090 | 33909 ft | 503 kts | 93° |
| 2026-05-06 17:15 | 41.35191 | -0.26779 | 33905 ft | 503 kts | 93° |
| 2026-05-06 17:16 | 41.35109 | -0.17464 | 33898 ft | 503 kts | 93° |
| 2026-05-06 17:16 | 41.35018 | -0.08151 | 33902 ft | 503 kts | 94° |
| 2026-05-06 17:17 | 41.34920 | 0.01165 | 33897 ft | 503 kts | 94° |
| 2026-05-06 17:17 | 41.34815 | 0.10490 | 33897 ft | 503 kts | 94° |
| 2026-05-06 17:18 | 41.34702 | 0.19799 | 33895 ft | 504 kts | 94° |
| 2026-05-06 17:18 | 41.34582 | 0.29136 | 33894 ft | 504 kts | 94° |
| 2026-05-06 17:19 | 41.34454 | 0.38409 | 33894 ft | 504 kts | 94° |
| 2026-05-06 17:19 | 41.34318 | 0.47740 | 33889 ft | 504 kts | 94° |
| 2026-05-06 17:20 | 41.34174 | 0.57082 | 33891 ft | 505 kts | 95° |
| 2026-05-06 17:20 | 41.34021 | 0.66420 | 33893 ft | 505 kts | 95° |
| 2026-05-06 17:21 | 41.33863 | 0.75786 | 33890 ft | 506 kts | 95° |
| 2026-05-06 17:21 | 41.33697 | 0.85153 | 33889 ft | 506 kts | 95° |
| 2026-05-06 17:22 | 41.33522 | 0.94521 | 33896 ft | 507 kts | 95° |
| 2026-05-06 17:22 | 41.33340 | 1.03844 | 33908 ft | 507 kts | 96° |
| 2026-05-06 17:23 | 41.33145 | 1.13236 | 33895 ft | 508 kts | 96° |
| 2026-05-06 17:23 | 41.32951 | 1.22628 | 33899 ft | 508 kts | 96° |
| 2026-05-06 17:24 | 41.32749 | 1.32030 | 33907 ft | 509 kts | 96° |
| 2026-05-06 17:24 | 41.32536 | 1.41453 | 33915 ft | 509 kts | 97° |
| 2026-05-06 17:25 | 41.32314 | 1.50880 | 33919 ft | 510 kts | 97° |
| 2026-05-06 17:25 | 41.32084 | 1.60323 | 33920 ft | 510 kts | 97° |
| 2026-05-06 17:26 | 41.31848 | 1.69761 | 33933 ft | 511 kts | 97° |
| 2026-05-06 17:26 | 41.31603 | 1.79157 | 33939 ft | 511 kts | 97° |
| 2026-05-06 17:27 | 41.31350 | 1.88598 | 33946 ft | 511 kts | 97° |
| 2026-05-06 17:27 | 41.31089 | 1.98035 | 33938 ft | 509 kts | 97° |
| 2026-05-06 17:28 | 41.30859 | 2.07464 | 33938 ft | 513 kts | 94° |
| 2026-05-06 17:28 | 41.31802 | 2.16934 | 33938 ft | 521 kts | 79° |
| 2026-05-06 17:29 | 41.33494 | 2.26320 | 33936 ft | 521 kts | 79° |
| 2026-05-06 17:29 | 41.35141 | 2.35636 | 33932 ft | 521 kts | 79° |
| 2026-05-06 17:30 | 41.36790 | 2.45018 | 33935 ft | 521 kts | 79° |
| 2026-05-06 17:30 | 41.38439 | 2.54448 | 33931 ft | 521 kts | 80° |
| 2026-05-06 17:31 | 41.40081 | 2.63881 | 33932 ft | 522 kts | 80° |
| 2026-05-06 17:31 | 41.41704 | 2.73252 | 33937 ft | 522 kts | 80° |
| 2026-05-06 17:32 | 41.43327 | 2.82674 | 33936 ft | 522 kts | 80° |
| 2026-05-06 17:32 | 41.44942 | 2.92095 | 33925 ft | 521 kts | 80° |
| 2026-05-06 17:33 | 41.46547 | 3.01506 | 33925 ft | 519 kts | 80° |
| 2026-05-06 17:33 | 41.48141 | 3.10909 | 33928 ft | 519 kts | 80° |
| 2026-05-06 17:34 | 41.49714 | 3.20234 | 33931 ft | 519 kts | 81° |
| 2026-05-06 17:34 | 41.51289 | 3.29622 | 33932 ft | 519 kts | 81° |
| 2026-05-06 17:35 | 41.52855 | 3.39016 | 33938 ft | 518 kts | 81° |
| 2026-05-06 17:35 | 41.54416 | 3.48424 | 33935 ft | 518 kts | 81° |
| 2026-05-06 17:36 | 41.56736 | 3.62514 | 33937 ft | 518 kts | 81° |
| 2026-05-06 17:36 | 41.58274 | 3.71926 | 33937 ft | 518 kts | 81° |
| 2026-05-06 17:37 | 41.59804 | 3.81341 | 33940 ft | 518 kts | 81° |
| 2026-05-06 17:37 | 41.61299 | 3.90632 | 33937 ft | 512 kts | 80° |
| 2026-05-06 17:38 | 41.62802 | 3.99960 | 33946 ft | 513 kts | 80° |
| 2026-05-06 17:38 | 41.64302 | 4.09303 | 33943 ft | 513 kts | 80° |
| 2026-05-06 17:39 | 41.65789 | 4.18622 | 33944 ft | 513 kts | 80° |
| 2026-05-06 17:39 | 41.67261 | 4.27903 | 33944 ft | 512 kts | 80° |
| 2026-05-06 17:40 | 41.68735 | 4.37247 | 33946 ft | 512 kts | 81° |
| 2026-05-06 17:40 | 41.70200 | 4.46578 | 33947 ft | 512 kts | 81° |
| 2026-05-06 17:41 | 41.71660 | 4.55914 | 33942 ft | 513 kts | 79° |
| 2026-05-06 17:41 | 41.72747 | 4.60474 | 33941 ft | 515 kts | 67° |
| 2026-05-06 17:41 | 41.74456 | 4.64682 | 33938 ft | 515 kts | 54° |
| 2026-05-06 17:42 | 41.76689 | 4.68331 | 33936 ft | 512 kts | 42° |
| 2026-05-06 17:42 | 41.79417 | 4.71371 | 33939 ft | 507 kts | 30° |
| 2026-05-06 17:42 | 41.82488 | 4.73622 | 33934 ft | 499 kts | 17° |
| 2026-05-06 17:42 | 41.85760 | 4.75111 | 33931 ft | 494 kts | 10° |
| 2026-05-06 17:43 | 41.92340 | 4.77888 | 33935 ft | 498 kts | 14° |
| 2026-05-06 17:43 | 41.98818 | 4.81327 | 33939 ft | 501 kts | 18° |
| 2026-05-06 17:44 | 42.05195 | 4.85004 | 33947 ft | 503 kts | 18° |
| 2026-05-06 17:44 | 42.11621 | 4.88747 | 33951 ft | 503 kts | 18° |
| 2026-05-06 17:45 | 42.18062 | 4.92498 | 33953 ft | 504 kts | 18° |
| 2026-05-06 17:45 | 42.24512 | 4.96258 | 33953 ft | 505 kts | 19° |
| 2026-05-06 17:46 | 42.30965 | 5.00028 | 33949 ft | 505 kts | 19° |
| 2026-05-06 17:46 | 42.37414 | 5.03803 | 33949 ft | 505 kts | 19° |
| 2026-05-06 17:47 | 42.43726 | 5.07882 | 33946 ft | 508 kts | 25° |
| 2026-05-06 17:47 | 42.49913 | 5.12552 | 33938 ft | 508 kts | 25° |
| 2026-05-06 17:48 | 42.56091 | 5.17197 | 33934 ft | 508 kts | 25° |
| 2026-05-06 17:48 | 42.62268 | 5.21860 | 33929 ft | 507 kts | 25° |
| 2026-05-06 17:49 | 42.68435 | 5.26530 | 33930 ft | 507 kts | 25° |
| 2026-05-06 17:49 | 42.74612 | 5.31219 | 33932 ft | 507 kts | 25° |
| 2026-05-06 17:50 | 42.80723 | 5.35869 | 33930 ft | 506 kts | 25° |
| 2026-05-06 17:50 | 42.86875 | 5.40559 | 33924 ft | 506 kts | 25° |
| 2026-05-06 17:51 | 42.93022 | 5.45257 | 33921 ft | 506 kts | 25° |
| 2026-05-06 17:51 | 42.99159 | 5.49959 | 33916 ft | 505 kts | 25° |
| 2026-05-06 17:52 | 43.05298 | 5.54675 | 33920 ft | 505 kts | 26° |
| 2026-05-06 17:52 | 43.10827 | 5.60568 | 33914 ft | 511 kts | 45° |
| 2026-05-06 17:53 | 43.15179 | 5.68277 | 33908 ft | 512 kts | 54° |
| 2026-05-06 17:53 | 43.19355 | 5.76210 | 33903 ft | 512 kts | 54° |
| 2026-05-06 17:54 | 43.22762 | 5.84743 | 33901 ft | 510 kts | 72° |
| 2026-05-06 17:54 | 43.24415 | 5.94075 | 33898 ft | 506 kts | 82° |
| 2026-05-06 17:55 | 43.25743 | 6.03550 | 33895 ft | 506 kts | 82° |
| 2026-05-06 17:55 | 43.27065 | 6.13040 | 33898 ft | 507 kts | 83° |
| 2026-05-06 17:56 | 43.28377 | 6.22555 | 33883 ft | 507 kts | 83° |
| 2026-05-06 17:56 | 43.29682 | 6.32102 | 33874 ft | 508 kts | 83° |
| 2026-05-06 17:57 | 43.30979 | 6.41640 | 33885 ft | 508 kts | 83° |
| 2026-05-06 17:57 | 43.32269 | 6.51187 | 33883 ft | 509 kts | 83° |
| 2026-05-06 17:58 | 43.33551 | 6.60740 | 33880 ft | 509 kts | 83° |
| 2026-05-06 17:58 | 43.34610 | 6.68681 | 33882 ft | 508 kts | 83° |
| 2026-05-06 17:59 | 43.36088 | 6.79836 | 33864 ft | 509 kts | 84° |
| 2026-05-06 17:59 | 43.37510 | 6.87679 | 33863 ft | 515 kts | 71° |
| 2026-05-06 18:00 | 43.40984 | 6.96306 | 33861 ft | 518 kts | 54° |
| 2026-05-06 18:00 | 43.45219 | 7.04351 | 33862 ft | 519 kts | 54° |
| 2026-05-06 18:01 | 43.49437 | 7.12438 | 33853 ft | 519 kts | 54° |
| 2026-05-06 18:01 | 43.53647 | 7.20530 | 33839 ft | 520 kts | 55° |
| 2026-05-06 18:02 | 43.57831 | 7.28593 | 33841 ft | 520 kts | 55° |
| 2026-05-06 18:02 | 43.62034 | 7.36714 | 33836 ft | 520 kts | 55° |
| 2026-05-06 18:03 | 43.66241 | 7.44865 | 33838 ft | 520 kts | 55° |
| 2026-05-06 18:03 | 43.70433 | 7.53011 | 33839 ft | 519 kts | 55° |
| 2026-05-06 18:04 | 43.74615 | 7.61159 | 33830 ft | 519 kts | 55° |
| 2026-05-06 18:04 | 43.78760 | 7.69259 | 33832 ft | 518 kts | 56° |
| 2026-05-06 18:05 | 43.83418 | 7.76859 | 33835 ft | 518 kts | 41° |
| 2026-05-06 18:05 | 43.89028 | 7.83079 | 33827 ft | 517 kts | 36° |
| 2026-05-06 18:06 | 43.94262 | 7.89894 | 33824 ft | 517 kts | 54° |
| 2026-05-06 18:06 | 43.96140 | 7.94122 | 33830 ft | 515 kts | 66° |
| 2026-05-06 18:06 | 43.97414 | 7.98760 | 33828 ft | 509 kts | 79° |
| 2026-05-06 18:07 | 43.98904 | 8.08347 | 33828 ft | 507 kts | 83° |
| 2026-05-06 18:07 | 44.00454 | 8.17883 | 33831 ft | 512 kts | 81° |
| 2026-05-06 18:08 | 44.02197 | 8.27472 | 33835 ft | 512 kts | 80° |
| 2026-05-06 18:08 | 44.03973 | 8.37057 | 33831 ft | 513 kts | 80° |
| 2026-05-06 18:09 | 44.05749 | 8.46687 | 33838 ft | 513 kts | 80° |
| 2026-05-06 18:09 | 44.07511 | 8.56302 | 33849 ft | 513 kts | 80° |
| 2026-05-06 18:10 | 44.09266 | 8.65935 | 33862 ft | 513 kts | 80° |
| 2026-05-06 18:10 | 44.11013 | 8.75571 | 33872 ft | 513 kts | 80° |
| 2026-05-06 18:11 | 44.12737 | 8.85132 | 33876 ft | 512 kts | 80° |
| 2026-05-06 18:11 | 44.14465 | 8.94767 | 33884 ft | 512 kts | 80° |
| 2026-05-06 18:12 | 44.16180 | 9.04380 | 33887 ft | 511 kts | 81° |
| 2026-05-06 18:12 | 44.17884 | 9.13980 | 33893 ft | 510 kts | 81° |
| 2026-05-06 18:13 | 44.19570 | 9.23528 | 33901 ft | 509 kts | 81° |
| 2026-05-06 18:13 | 44.21253 | 9.33114 | 33904 ft | 508 kts | 81° |
| 2026-05-06 18:14 | 44.22924 | 9.42678 | 33911 ft | 507 kts | 81° |
| 2026-05-06 18:14 | 44.24576 | 9.52188 | 33908 ft | 506 kts | 81° |
| 2026-05-06 18:15 | 44.26226 | 9.61737 | 33911 ft | 505 kts | 81° |
| 2026-05-06 18:15 | 44.27864 | 9.71265 | 33915 ft | 504 kts | 81° |
| 2026-05-06 18:16 | 44.29491 | 9.80783 | 33907 ft | 503 kts | 81° |
| 2026-05-06 18:16 | 44.31107 | 9.90286 | 33918 ft | 501 kts | 82° |
| 2026-05-06 18:17 | 44.32704 | 9.99731 | 33918 ft | 504 kts | 82° |
| 2026-05-06 18:17 | 44.34308 | 10.09270 | 33928 ft | 502 kts | 82° |
| 2026-05-06 18:18 | 44.35897 | 10.18764 | 33927 ft | 503 kts | 82° |
| 2026-05-06 18:18 | 44.37487 | 10.28327 | 33934 ft | 506 kts | 82° |
| 2026-05-06 18:19 | 44.39059 | 10.37828 | 33907 ft | 505 kts | 82° |
| 2026-05-06 18:19 | 44.39850 | 10.42633 | 33653 ft | 506 kts | 82° |
| 2026-05-06 18:19 | 44.40637 | 10.47431 | 33379 ft | 506 kts | 82° |
| 2026-05-06 18:20 | 44.41422 | 10.52228 | 33110 ft | 507 kts | 82° |
| 2026-05-06 18:20 | 44.42210 | 10.57054 | 32594 ft | 509 kts | 82° |
| 2026-05-06 18:20 | 44.42997 | 10.61892 | 31846 ft | 512 kts | 82° |
| 2026-05-06 18:20 | 44.43790 | 10.66780 | 30900 ft | 516 kts | 82° |
| 2026-05-06 18:21 | 44.44585 | 10.71687 | 30181 ft | 515 kts | 82° |
| 2026-05-06 18:21 | 44.45363 | 10.76484 | 29664 ft | 507 kts | 82° |
| 2026-05-06 18:21 | 44.46135 | 10.81265 | 29109 ft | 500 kts | 82° |
| 2026-05-06 18:21 | 44.46894 | 10.85985 | 28558 ft | 493 kts | 82° |
| 2026-05-06 18:22 | 44.47638 | 10.90632 | 28008 ft | 486 kts | 82° |
| 2026-05-06 18:22 | 44.48372 | 10.95240 | 27470 ft | 479 kts | 82° |
| 2026-05-06 18:22 | 44.49090 | 10.99761 | 26938 ft | 473 kts | 82° |
| 2026-05-06 18:22 | 44.49801 | 11.04243 | 26409 ft | 468 kts | 82° |
| 2026-05-06 18:23 | 44.50500 | 11.08665 | 25906 ft | 462 kts | 81° |
| 2026-05-06 18:23 | 44.51190 | 11.13041 | 25370 ft | 457 kts | 81° |
| 2026-05-06 18:23 | 44.51870 | 11.17370 | 24873 ft | 453 kts | 81° |
| 2026-05-06 18:23 | 44.52538 | 11.21619 | 24366 ft | 448 kts | 81° |
| 2026-05-06 18:24 | 44.53205 | 11.25866 | 23961 ft | 444 kts | 81° |
| 2026-05-06 18:24 | 44.53722 | 11.30176 | 23722 ft | 451 kts | 88° |
| 2026-05-06 18:24 | 44.53922 | 11.34583 | 23320 ft | 454 kts | 90° |
| 2026-05-06 18:24 | 44.54098 | 11.39024 | 22752 ft | 453 kts | 90° |
| 2026-05-06 18:25 | 44.54282 | 11.43361 | 22229 ft | 448 kts | 90° |
| 2026-05-06 18:25 | 44.54467 | 11.47694 | 21706 ft | 441 kts | 90° |
| 2026-05-06 18:25 | 44.54645 | 11.51958 | 21184 ft | 435 kts | 90° |
| 2026-05-06 18:25 | 44.54817 | 11.56173 | 20673 ft | 429 kts | 90° |
| 2026-05-06 18:26 | 44.54983 | 11.60330 | 20176 ft | 424 kts | 90° |
| 2026-05-06 18:26 | 44.55480 | 11.64362 | 19945 ft | 419 kts | 73° |
| 2026-05-06 18:26 | 44.56767 | 11.68059 | 19898 ft | 427 kts | 56° |
| 2026-05-06 18:26 | 44.58743 | 11.71161 | 19901 ft | 427 kts | 39° |
| 2026-05-06 18:27 | 44.61177 | 11.73515 | 19907 ft | 425 kts | 28° |
| 2026-05-06 18:27 | 44.63741 | 11.75585 | 19907 ft | 424 kts | 27° |
| 2026-05-06 18:27 | 44.66291 | 11.77679 | 19909 ft | 425 kts | 29° |
| 2026-05-06 18:27 | 44.68814 | 11.79876 | 19906 ft | 425 kts | 31° |
| 2026-05-06 18:28 | 44.71267 | 11.82115 | 19907 ft | 425 kts | 32° |
| 2026-05-06 18:28 | 44.73731 | 11.84424 | 19906 ft | 426 kts | 32° |
| 2026-05-06 18:28 | 44.76194 | 11.86758 | 19902 ft | 426 kts | 32° |
| 2026-05-06 18:28 | 44.78651 | 11.89097 | 19901 ft | 426 kts | 32° |
| 2026-05-06 18:29 | 44.81098 | 11.91429 | 19740 ft | 423 kts | 32° |
| 2026-05-06 18:29 | 44.83533 | 11.93750 | 19356 ft | 420 kts | 32° |
| 2026-05-06 18:29 | 44.85945 | 11.96049 | 18875 ft | 417 kts | 32° |
| 2026-05-06 18:29 | 44.88344 | 11.98337 | 18352 ft | 414 kts | 32° |
| 2026-05-06 18:30 | 44.90718 | 12.00603 | 17790 ft | 410 kts | 33° |
| 2026-05-06 18:30 | 44.92959 | 12.02996 | 17285 ft | 406 kts | 41° |
| 2026-05-06 18:30 | 44.95017 | 12.05612 | 17118 ft | 392 kts | 41° |
| 2026-05-06 18:30 | 44.97048 | 12.08158 | 16972 ft | 378 kts | 41° |
| 2026-05-06 18:31 | 44.99033 | 12.10390 | 16800 ft | 361 kts | 28° |
| 2026-05-06 18:31 | 45.01296 | 12.11575 | 16607 ft | 335 kts | 4° |
| 2026-05-06 18:31 | 45.03539 | 12.11606 | 16323 ft | 316 kts | 351° |
| 2026-05-06 18:31 | 45.05693 | 12.11233 | 15790 ft | 306 kts | 337° |
| 2026-05-06 18:32 | 45.07532 | 12.09898 | 15176 ft | 292 kts | 313° |
| 2026-05-06 18:32 | 45.08901 | 12.07851 | 14618 ft | 285 kts | 304° |
| 2026-05-06 18:32 | 45.10261 | 12.05811 | 14088 ft | 287 kts | 311° |
| 2026-05-06 18:32 | 45.11790 | 12.03984 | 13559 ft | 287 kts | 314° |
| 2026-05-06 18:33 | 45.13329 | 12.02194 | 13004 ft | 284 kts | 314° |
| 2026-05-06 18:33 | 45.14850 | 12.00417 | 12461 ft | 282 kts | 314° |
| 2026-05-06 18:33 | 45.16349 | 11.98648 | 11949 ft | 279 kts | 314° |
| 2026-05-06 18:33 | 45.17828 | 11.96889 | 11435 ft | 276 kts | 314° |
| 2026-05-06 18:34 | 45.19292 | 11.95131 | 10923 ft | 274 kts | 314° |
| 2026-05-06 18:34 | 45.20722 | 11.93400 | 10443 ft | 272 kts | 314° |
| 2026-05-06 18:34 | 45.22148 | 11.91659 | 9945 ft | 269 kts | 314° |
| 2026-05-06 18:34 | 45.23555 | 11.89924 | 9460 ft | 267 kts | 314° |
| 2026-05-06 18:35 | 45.24948 | 11.88190 | 8931 ft | 264 kts | 314° |
| 2026-05-06 18:35 | 45.26320 | 11.86466 | 8423 ft | 261 kts | 314° |
| 2026-05-06 18:35 | 45.27667 | 11.84757 | 7932 ft | 259 kts | 315° |
| 2026-05-06 18:35 | 45.29206 | 11.83482 | 7418 ft | 263 kts | 341° |
| 2026-05-06 18:36 | 45.31032 | 11.83352 | 6902 ft | 267 kts | 10° |
| 2026-05-06 18:36 | 45.32697 | 11.84445 | 6417 ft | 266 kts | 39° |
| 2026-05-06 18:36 | 45.33813 | 11.86512 | 5909 ft | 264 kts | 69° |
| 2026-05-06 18:36 | 45.34101 | 11.89027 | 5414 ft | 257 kts | 98° |
| 2026-05-06 18:37 | 45.33783 | 11.91505 | 4969 ft | 254 kts | 104° |
| 2026-05-06 18:37 | 45.33543 | 11.93126 | 4784 ft | 251 kts | 104° |
| 2026-05-06 18:37 | 45.33071 | 11.96316 | 4514 ft | 242 kts | 104° |
| 2026-05-06 18:37 | 45.32733 | 11.98608 | 4405 ft | 232 kts | 104° |
| 2026-05-06 18:38 | 45.32412 | 12.00821 | 4257 ft | 225 kts | 104° |
| 2026-05-06 18:38 | 45.32097 | 12.02997 | 3974 ft | 225 kts | 104° |
| 2026-05-06 18:38 | 45.31786 | 12.05171 | 3705 ft | 224 kts | 104° |
| 2026-05-06 18:38 | 45.31479 | 12.07332 | 3440 ft | 223 kts | 103° |
| 2026-05-06 18:39 | 45.31508 | 12.09534 | 3144 ft | 227 kts | 74° |
| 2026-05-06 18:39 | 45.32252 | 12.11480 | 3023 ft | 222 kts | 52° |
| 2026-05-06 18:39 | 45.33267 | 12.13045 | 3006 ft | 208 kts | 44° |
| 2026-05-06 18:40 | 45.35409 | 12.15804 | 3009 ft | 208 kts | 43° |
| 2026-05-06 18:40 | 45.36488 | 12.17186 | 3010 ft | 209 kts | 43° |
| 2026-05-06 18:40 | 45.37552 | 12.18549 | 3006 ft | 207 kts | 43° |
| 2026-05-06 18:40 | 45.38630 | 12.19931 | 2888 ft | 210 kts | 43° |
| 2026-05-06 18:41 | 45.39722 | 12.21331 | 2587 ft | 211 kts | 43° |
| 2026-05-06 18:41 | 45.40814 | 12.22731 | 2318 ft | 209 kts | 43° |
| 2026-05-06 18:41 | 45.41853 | 12.24064 | 2043 ft | 192 kts | 43° |
| 2026-05-06 18:41 | 45.42794 | 12.25271 | 1786 ft | 174 kts | 43° |
| 2026-05-06 18:42 | 45.43643 | 12.26362 | 1542 ft | 156 kts | 43° |
| 2026-05-06 18:42 | 45.44416 | 12.27355 | 1345 ft | 145 kts | 44° |
| 2026-05-06 18:42 | 45.45140 | 12.28284 | 1154 ft | 138 kts | 44° |
| 2026-05-06 18:42 | 45.45863 | 12.29215 | 966 ft | 139 kts | 44° |
| 2026-05-06 18:43 | 45.46582 | 12.30126 | 793 ft | 137 kts | 45° |
| 2026-05-06 18:43 | 45.47286 | 12.31041 | 599 ft | 137 kts | 43° |
| 2026-05-06 18:43 | 45.47989 | 12.31936 | 405 ft | 134 kts | 43° |
| 2026-05-06 18:43 | 45.48680 | 12.32827 | 243 ft | 136 kts | 44° |
| 2026-05-06 18:44 | 45.49388 | 12.33734 | 61 ft | 137 kts | 43° |
| 2026-05-06 18:44 | 45.49853 | 12.34334 | 16 ft | 128 kts | 43° |
| 2026-05-06 18:44 | 45.50508 | 12.35183 | 13 ft | 59 kts | 42° |
| 2026-05-06 18:44 | 45.50715 | 12.35394 | 15 ft | 15 kts | 18° |
| 2026-05-06 18:45 | 45.50777 | 12.35420 | 16 ft | 14 kts | 11° |
| 2026-05-06 18:45 | 45.50831 | 12.35433 | 15 ft | 1 kts | 10° |
| 2026-05-06 18:45 | 45.50850 | 12.35438 | 15 ft | 5 kts | 10° |
| 2026-05-06 18:45 | 45.50865 | 12.35443 | 15 ft | 0 kts | 14° |
| 2026-05-06 18:46 | 45.50874 | 12.35447 | 16 ft | 4 kts | 14° |
| 2026-05-06 18:46 | 45.50919 | 12.35461 | 16 ft | 8 kts | 7° |
| 2026-05-06 18:47 | 45.50976 | 12.35425 | 17 ft | 10 kts | 307° |
| 2026-05-06 18:47 | 45.50977 | 12.35326 | 18 ft | 11 kts | 256° |
| 2026-05-06 18:47 | 45.50951 | 12.35204 | 16 ft | 13 kts | 244° |
| 2026-05-06 18:47 | 45.50908 | 12.35142 | 16 ft | 9 kts | 222° |
| 2026-05-06 18:48 | 45.50851 | 12.35067 | 16 ft | 13 kts | 221° |
| 2026-05-06 18:48 | 45.50783 | 12.34982 | 15 ft | 13 kts | 222° |
| 2026-05-06 18:48 | 45.50718 | 12.34898 | 17 ft | 11 kts | 223° |
| 2026-05-06 18:48 | 45.50657 | 12.34819 | 15 ft | 13 kts | 221° |
| 2026-05-06 18:49 | 45.50607 | 12.34707 | 15 ft | 10 kts | 259° |
| 2026-05-06 18:49 | 45.50605 | 12.34653 | 15 ft | 7 kts | 267° |
| 2026-05-06 18:49 | 45.50602 | 12.34569 | 15 ft | 10 kts | 267° |
| 2026-05-06 18:49 | 45.50598 | 12.34466 | 15 ft | 9 kts | 267° |
| 2026-05-06 18:50 | 45.50571 | 12.34388 | 15 ft | 9 kts | 223° |
| 2026-05-06 18:50 | 45.50554 | 12.34327 | 15 ft | 7 kts | 274° |
| 2026-05-06 18:50 | 45.50553 | 12.34251 | 15 ft | 7 kts | 267° |
| 2026-05-06 18:50 | 45.50552 | 12.34219 | 15 ft | 0 kts | 267° |